createdAt,value
2022-11-26T00:04:36.929Z,19.80
2022-11-26T00:09:39.109Z,20.67
2022-11-26T00:14:41.054Z,20.97
2022-11-26T00:19:44.570Z,20.27
2022-11-26T00:24:46.336Z,20.37
2022-11-26T00:29:48.177Z,21.27
2022-11-26T00:34:51.353Z,19.67
2022-11-26T00:39:53.169Z,19.43
2022-11-26T00:44:54.928Z,20.53
2022-11-26T00:49:58.027Z,19.73
2022-11-26T00:54:59.816Z,25.33
2022-11-26T01:00:01.646Z,23.07
2022-11-26T01:05:05.763Z,20.97
2022-11-26T01:10:21.668Z,22.27
2022-11-26T01:15:24.308Z,22.40
2022-11-26T01:20:29.710Z,21.30
2022-11-26T01:25:31.615Z,20.83
2022-11-26T01:30:33.661Z,20.67
2022-11-26T01:35:37.008Z,21.60
2022-11-26T01:40:49.247Z,21.97
2022-11-26T01:45:51.176Z,20.50
2022-11-26T01:50:59.586Z,20.60
2022-11-26T01:56:04.185Z,20.87
2022-11-26T02:01:06.125Z,22.60
2022-11-26T02:06:11.816Z,21.87
2022-11-26T02:11:18.132Z,22.53
2022-11-26T02:16:27.805Z,21.70
2022-11-26T02:21:30.973Z,23.83
2022-11-26T02:27:14.588Z,24.67
2022-11-26T02:32:20.823Z,24.60
2022-11-26T02:37:24.485Z,23.40
2022-11-26T02:42:27.960Z,25.60
2022-11-26T02:47:31.294Z,25.20
2022-11-26T02:52:33.062Z,25.47
2022-11-26T02:57:36.261Z,25.97
2022-11-26T03:02:41.253Z,25.77
2022-11-26T03:07:43.724Z,24.40
2022-11-26T03:12:45.877Z,23.50
2022-11-26T03:17:48.970Z,24.80
2022-11-26T03:22:50.789Z,23.90
2022-11-26T03:27:52.671Z,25.13
2022-11-26T03:32:55.913Z,24.70
2022-11-26T03:37:57.699Z,25.23
2022-11-26T03:43:02.576Z,25.50
2022-11-26T03:48:07.432Z,25.40
2022-11-26T03:53:09.266Z,24.60
2022-11-26T03:58:11.165Z,23.47
2022-11-26T04:03:14.315Z,24.20
2022-11-26T04:08:16.322Z,23.37
2022-11-26T04:13:18.201Z,24.80
2022-11-26T04:18:21.419Z,22.90
2022-11-26T04:23:23.943Z,21.83
2022-11-26T04:28:25.820Z,21.40
2022-11-26T04:33:28.987Z,21.90
2022-11-26T04:38:31.518Z,20.00
2022-11-26T04:43:35.399Z,20.47
2022-11-26T04:48:38.678Z,20.63
2022-11-26T04:53:40.431Z,21.50
2022-11-26T04:58:42.177Z,20.87
2022-11-26T05:03:45.310Z,22.20
2022-11-26T05:08:47.070Z,22.40
2022-11-26T05:13:48.932Z,22.53
2022-11-26T05:18:52.103Z,21.00
2022-11-26T05:23:53.900Z,19.50
2022-11-26T05:28:55.727Z,21.10
2022-11-26T05:33:58.814Z,23.70
2022-11-26T05:39:00.639Z,23.30
2022-11-26T05:44:02.635Z,22.87
2022-11-26T05:49:05.747Z,22.93
2022-11-26T05:54:07.795Z,22.13
2022-11-26T05:59:09.764Z,25.00
2022-11-26T06:04:12.911Z,23.93
2022-11-26T06:09:14.853Z,25.63
2022-11-26T06:14:16.729Z,24.40
2022-11-26T06:19:20.104Z,23.57
2022-11-26T06:24:22.019Z,22.70
2022-11-26T06:29:27.908Z,24.50
2022-11-26T06:34:31.845Z,23.87
2022-11-26T06:39:33.604Z,25.53
2022-11-26T06:44:35.289Z,24.90
2022-11-26T06:49:38.693Z,24.67
2022-11-26T06:54:40.664Z,23.03
2022-11-26T06:59:42.663Z,21.53
2022-11-26T07:04:46.754Z,22.10
2022-11-26T07:09:48.577Z,22.60
2022-11-26T07:14:50.404Z,20.30
2022-11-26T07:19:53.508Z,18.90
2022-11-26T07:24:55.237Z,19.37
2022-11-26T07:29:56.984Z,19.90
2022-11-26T07:35:01.742Z,21.47
2022-11-26T07:40:04.248Z,20.50
2022-11-26T07:45:12.082Z,20.53
2022-11-26T07:50:17.081Z,19.60
2022-11-26T07:55:19.337Z,17.97
2022-11-26T08:00:21.790Z,19.03
2022-11-26T08:05:24.896Z,18.70
2022-11-26T08:10:27.069Z,18.70
2022-11-26T08:15:28.878Z,18.23
2022-11-26T08:20:31.985Z,16.47
2022-11-26T08:25:33.740Z,17.70
2022-11-26T08:30:35.843Z,16.47
2022-11-26T08:36:05.629Z,16.93
2022-11-26T08:41:00.892Z,17.17
2022-11-26T08:46:02.889Z,15.60
2022-11-26T08:51:07.950Z,14.27
2022-11-26T08:56:10.906Z,15.60
2022-11-26T09:01:13.824Z,14.90
2022-11-26T09:06:17.135Z,15.13
2022-11-26T09:11:18.877Z,15.23
2022-11-26T09:16:20.768Z,12.83
2022-11-26T09:21:24.108Z,12.90
2022-11-26T09:26:25.926Z,13.23
2022-11-26T09:31:27.759Z,12.40
2022-11-26T09:36:30.909Z,13.07
2022-11-26T09:41:39.869Z,12.37
2022-11-26T09:47:10.103Z,12.80
2022-11-26T09:52:08.471Z,14.13
2022-11-26T09:57:17.730Z,13.30
2022-11-26T10:02:19.514Z,14.40
2022-11-26T10:07:36.486Z,14.30
2022-11-26T10:13:16.818Z,14.47
2022-11-26T10:18:13.663Z,14.47
2022-11-26T10:23:21.007Z,14.10
2022-11-26T10:28:26.498Z,15.17
2022-11-26T10:33:30.200Z,15.67
2022-11-26T10:38:33.376Z,14.93
2022-11-26T10:43:35.112Z,14.70
2022-11-26T10:48:37.062Z,14.40
2022-11-26T10:53:50.701Z,13.47
2022-11-26T10:58:53.019Z,13.90
2022-11-26T11:04:10.544Z,14.10
2022-11-26T11:09:24.911Z,15.60
2022-11-26T11:14:28.079Z,14.60
2022-11-26T11:19:29.797Z,16.30
2022-11-26T11:24:32.944Z,18.33
2022-11-26T11:29:36.526Z,19.00
2022-11-26T11:34:39.305Z,20.00
2022-11-26T11:39:42.725Z,19.10
2022-11-26T11:44:45.673Z,20.90
2022-11-26T11:49:53.282Z,20.03
2022-11-26T11:55:00.093Z,19.83
2022-11-26T12:00:12.064Z,18.40
2022-11-26T12:05:28.211Z,20.23
2022-11-26T12:10:35.725Z,18.00
2022-11-26T12:15:39.383Z,16.87
2022-11-26T12:20:44.170Z,18.50
2022-11-26T12:25:48.282Z,16.30
2022-11-26T12:30:52.321Z,16.57
2022-11-26T12:35:55.929Z,16.33
2022-11-26T12:41:01.569Z,16.97
2022-11-26T12:46:06.144Z,16.53
2022-11-26T12:51:15.464Z,16.53
2022-11-26T12:56:20.329Z,16.03
2022-11-26T13:01:24.045Z,15.80
2022-11-26T13:06:42.199Z,15.07
2022-11-26T13:11:48.376Z,16.03
2022-11-26T13:16:52.646Z,16.50
2022-11-26T13:22:11.949Z,14.80
2022-11-26T13:27:33.508Z,15.37
2022-11-26T13:32:50.367Z,15.97
2022-11-26T13:38:03.225Z,16.43
2022-11-26T13:43:44.038Z,15.93
2022-11-26T13:48:50.885Z,15.97
2022-11-26T13:53:54.799Z,17.13
2022-11-26T13:58:59.807Z,18.30
2022-11-26T14:04:03.405Z,17.70
2022-11-26T14:09:05.763Z,16.23
2022-11-26T14:14:31.707Z,15.40
2022-11-26T14:20:01.041Z,17.03
2022-11-26T14:25:04.374Z,16.90
2022-11-26T14:30:19.732Z,18.60
2022-11-26T14:35:29.207Z,16.30
2022-11-26T14:40:34.931Z,15.97
2022-11-26T14:45:38.178Z,16.60
2022-11-26T14:50:39.992Z,20.13
2022-11-26T14:55:43.097Z,17.20
2022-11-26T15:01:00.493Z,15.87
2022-11-26T15:06:02.288Z,18.73
2022-11-26T15:11:05.267Z,19.80
2022-11-26T15:21:40.030Z,22.00
2022-11-26T15:26:44.999Z,18.50
2022-11-26T15:31:47.175Z,19.70
2022-11-26T15:36:50.242Z,18.70
2022-11-26T15:41:52.449Z,18.50
2022-11-26T15:46:55.454Z,18.10
2022-11-26T15:51:59.556Z,21.60
2022-11-26T15:57:07.859Z,25.17
2022-11-26T16:02:16.718Z,31.57
2022-11-26T16:07:21.334Z,38.00
2022-11-26T16:12:28.165Z,36.83
2022-11-26T16:17:29.946Z,34.00
2022-11-26T16:22:33.262Z,28.60
2022-11-26T16:27:35.062Z,27.50
2022-11-26T16:32:36.880Z,20.13
2022-11-26T16:37:43.211Z,15.00
2022-11-26T16:42:45.334Z,17.07
2022-11-26T16:47:48.479Z,15.97
2022-11-26T16:52:51.823Z,16.37
2022-11-26T16:57:56.680Z,18.90
2022-11-26T17:02:58.938Z,21.10
2022-11-26T17:08:02.377Z,17.20
2022-11-26T17:13:04.411Z,19.20
2022-11-26T17:18:18.147Z,19.30
2022-11-26T17:23:21.359Z,18.47
2022-11-26T17:28:23.197Z,22.60
2022-11-26T17:33:25.030Z,28.10
2022-11-26T17:38:29.486Z,27.50
2022-11-26T17:43:34.239Z,49.47
2022-11-26T17:48:36.031Z,37.13
2022-11-26T17:53:39.133Z,37.30
2022-11-26T17:58:40.947Z,30.43
2022-11-26T18:03:42.803Z,33.03
2022-11-26T18:08:46.230Z,31.03
2022-11-26T18:13:48.082Z,31.77
2022-11-26T18:18:49.835Z,30.13
2022-11-26T18:23:53.317Z,48.47
2022-11-26T18:28:55.132Z,41.70
2022-11-26T18:33:56.908Z,34.50
2022-11-26T18:39:02.676Z,35.13
2022-11-26T18:44:04.539Z,32.63
2022-11-26T18:49:06.649Z,30.93
2022-11-26T18:54:09.883Z,26.00
2022-11-26T18:59:12.456Z,24.40
2022-11-26T19:04:14.233Z,23.00
2022-11-26T19:09:18.022Z,25.70
2022-11-26T19:14:19.886Z,21.70
2022-11-26T19:19:21.872Z,25.37
2022-11-26T19:24:24.934Z,27.07
2022-11-26T19:29:26.726Z,22.63
2022-11-26T19:34:28.590Z,18.60
2022-11-26T19:39:31.909Z,18.67
2022-11-26T19:44:33.982Z,22.93
2022-11-26T19:49:35.766Z,16.50
2022-11-26T19:54:38.960Z,13.83
2022-11-26T19:59:41.030Z,16.03
2022-11-26T20:04:43.129Z,14.80
2022-11-26T20:09:46.257Z,14.70
2022-11-26T20:14:48.043Z,15.60
2022-11-26T20:19:49.823Z,13.80
2022-11-26T20:24:53.033Z,13.40
2022-11-26T20:29:54.770Z,14.30
2022-11-26T20:34:57.918Z,12.30
2022-11-26T20:40:01.032Z,12.27
2022-11-26T20:45:03.296Z,12.10
2022-11-26T20:50:06.732Z,11.80
2022-11-26T20:55:10.216Z,12.03
2022-11-26T21:00:16.899Z,12.20
2022-11-26T21:05:19.133Z,10.60
2022-11-26T21:10:26.266Z,13.20
2022-11-26T21:15:28.202Z,12.10
2022-11-26T21:20:34.822Z,11.13
2022-11-26T21:25:39.711Z,12.53
2022-11-26T21:30:41.596Z,10.97
2022-11-26T21:35:43.509Z,10.50
2022-11-26T21:40:46.628Z,9.90
2022-11-26T21:45:48.490Z,10.90
2022-11-26T21:50:50.383Z,12.40
2022-11-26T21:55:53.529Z,13.00
2022-11-26T22:00:55.319Z,12.90
2022-11-26T22:05:58.434Z,10.73
2022-11-26T22:11:07.042Z,10.63
2022-11-26T22:16:09.244Z,10.67
2022-11-26T22:21:12.261Z,10.90
2022-11-26T22:26:15.392Z,10.97
2022-11-26T22:31:18.704Z,10.03
2022-11-26T22:36:20.487Z,9.07
2022-11-26T22:41:23.599Z,9.73
2022-11-26T22:46:25.475Z,9.20
2022-11-26T22:51:28.100Z,9.37
2022-11-26T22:56:31.605Z,10.53
2022-11-26T23:01:34.512Z,10.40
2022-11-26T23:06:36.693Z,9.93
2022-11-26T23:11:41.465Z,10.10
2022-11-26T23:16:43.565Z,9.33
2022-11-26T23:21:46.759Z,9.87
2022-11-26T23:26:50.297Z,9.93
2022-11-26T23:31:52.320Z,10.97
2022-11-26T23:36:54.140Z,10.67
2022-11-26T23:41:57.431Z,11.30
2022-11-26T23:46:59.313Z,9.53
2022-11-26T23:52:01.301Z,11.87
2022-11-26T23:57:05.078Z,10.73
